DAL8884 KLGA-KMKE
Flight info
| Callsign | DAL8884 |
|---|---|
| Flight time | N/A |
| Altitude | 38000 |
| Route | NEWEL J60 DJB CRL PEGEE GETCH LYSTR SUDDS |
| Aircraft | B752/M-SDE3FGHIM3RWXY/LB1 |
Departure
| Time | N/A |
|---|---|
| Airport | LaGuardia Airport (KLGA) |
Arrival
| Time | 2026-05-07 23:42 |
|---|---|
| Airport | General Mitchell International Airport (KMKE) |
| Time | Latitude | Longitude | Altitude | Speed | Heading |
|---|---|---|---|---|---|
| 2026-05-07 23:18 | 43.15833 | -85.54593 | 33419 ft | 396 kts | 273° |
| 2026-05-07 23:18 | 43.15918 | -85.58364 | 32903 ft | 397 kts | 274° |
| 2026-05-07 23:18 | 43.16001 | -85.62117 | 32357 ft | 398 kts | 274° |
| 2026-05-07 23:19 | 43.16083 | -85.65899 | 31791 ft | 400 kts | 274° |
| 2026-05-07 23:19 | 43.16165 | -85.69705 | 31247 ft | 399 kts | 274° |
| 2026-05-07 23:19 | 43.16243 | -85.73457 | 30712 ft | 396 kts | 274° |
| 2026-05-07 23:19 | 43.16323 | -85.77241 | 30094 ft | 400 kts | 274° |
| 2026-05-07 23:20 | 43.16402 | -85.81043 | 29462 ft | 406 kts | 274° |
| 2026-05-07 23:20 | 43.16479 | -85.84866 | 28754 ft | 402 kts | 274° |
| 2026-05-07 23:20 | 43.16553 | -85.88644 | 28026 ft | 395 kts | 274° |
| 2026-05-07 23:20 | 43.16626 | -85.92392 | 27284 ft | 391 kts | 274° |
| 2026-05-07 23:21 | 43.16696 | -85.96036 | 26553 ft | 388 kts | 274° |
| 2026-05-07 23:21 | 43.16765 | -85.99686 | 25813 ft | 385 kts | 274° |
| 2026-05-07 23:21 | 43.16832 | -86.03308 | 25058 ft | 380 kts | 274° |
| 2026-05-07 23:21 | 43.16851 | -86.06899 | 24300 ft | 375 kts | 272° |
| 2026-05-07 23:22 | 43.16794 | -86.10415 | 23837 ft | 367 kts | 272° |
| 2026-05-07 23:22 | 43.16747 | -86.13934 | 23441 ft | 375 kts | 271° |
| 2026-05-07 23:22 | 43.16696 | -86.17530 | 22997 ft | 375 kts | 272° |
| 2026-05-07 23:22 | 43.16644 | -86.21018 | 22569 ft | 368 kts | 272° |
| 2026-05-07 23:23 | 43.16592 | -86.24480 | 22152 ft | 363 kts | 271° |
| 2026-05-07 23:23 | 43.16540 | -86.27927 | 21745 ft | 361 kts | 271° |
| 2026-05-07 23:23 | 43.16489 | -86.31335 | 21349 ft | 360 kts | 271° |
| 2026-05-07 23:23 | 43.16435 | -86.34777 | 20972 ft | 359 kts | 271° |
| 2026-05-07 23:24 | 43.16381 | -86.38172 | 20589 ft | 357 kts | 271° |
| 2026-05-07 23:24 | 43.16327 | -86.41527 | 20234 ft | 355 kts | 271° |
| 2026-05-07 23:24 | 43.16271 | -86.44910 | 19872 ft | 353 kts | 271° |
| 2026-05-07 23:24 | 43.16214 | -86.48270 | 19537 ft | 351 kts | 271° |
| 2026-05-07 23:25 | 43.16157 | -86.51595 | 19195 ft | 351 kts | 271° |
| 2026-05-07 23:25 | 43.16100 | -86.54933 | 18843 ft | 350 kts | 271° |
| 2026-05-07 23:25 | 43.16041 | -86.58245 | 18487 ft | 348 kts | 271° |
| 2026-05-07 23:25 | 43.15982 | -86.61522 | 18154 ft | 346 kts | 271° |
| 2026-05-07 23:26 | 43.15922 | -86.64813 | 17821 ft | 345 kts | 271° |
| 2026-05-07 23:26 | 43.15864 | -86.67964 | 17504 ft | 344 kts | 270° |
| 2026-05-07 23:26 | 43.15804 | -86.71133 | 17183 ft | 342 kts | 270° |
| 2026-05-07 23:26 | 43.15742 | -86.74385 | 16857 ft | 341 kts | 270° |
| 2026-05-07 23:27 | 43.15617 | -86.80812 | 16186 ft | 338 kts | 270° |
| 2026-05-07 23:27 | 43.15553 | -86.84017 | 15874 ft | 336 kts | 270° |
| 2026-05-07 23:27 | 43.15488 | -86.87219 | 15545 ft | 335 kts | 270° |
| 2026-05-07 23:28 | 43.15423 | -86.90395 | 15230 ft | 334 kts | 270° |
| 2026-05-07 23:28 | 43.15358 | -86.93525 | 14915 ft | 333 kts | 270° |
| 2026-05-07 23:28 | 43.15291 | -86.96713 | 14585 ft | 332 kts | 270° |
| 2026-05-07 23:28 | 43.15225 | -86.99841 | 14270 ft | 329 kts | 270° |
| 2026-05-07 23:29 | 43.15157 | -87.02943 | 13979 ft | 327 kts | 270° |
| 2026-05-07 23:29 | 43.15088 | -87.06085 | 13438 ft | 332 kts | 270° |
| 2026-05-07 23:29 | 43.15019 | -87.09192 | 12806 ft | 330 kts | 270° |
| 2026-05-07 23:29 | 43.14946 | -87.12309 | 12159 ft | 327 kts | 270° |
| 2026-05-07 23:30 | 43.14875 | -87.15397 | 11519 ft | 323 kts | 270° |
| 2026-05-07 23:30 | 43.14877 | -87.18434 | 10895 ft | 319 kts | 273° |
| 2026-05-07 23:30 | 43.14977 | -87.21433 | 10294 ft | 315 kts | 273° |
| 2026-05-07 23:30 | 43.15082 | -87.24365 | 10136 ft | 297 kts | 274° |
| 2026-05-07 23:31 | 43.15176 | -87.27095 | 10041 ft | 281 kts | 274° |
| 2026-05-07 23:31 | 43.15262 | -87.29689 | 10016 ft | 264 kts | 274° |
| 2026-05-07 23:31 | 43.15345 | -87.32124 | 9998 ft | 248 kts | 274° |
| 2026-05-07 23:31 | 43.15427 | -87.34416 | 9786 ft | 242 kts | 274° |
| 2026-05-07 23:32 | 43.15507 | -87.36702 | 9391 ft | 242 kts | 274° |
| 2026-05-07 23:32 | 43.15588 | -87.39001 | 9021 ft | 241 kts | 274° |
| 2026-05-07 23:32 | 43.15662 | -87.41300 | 8607 ft | 242 kts | 274° |
| 2026-05-07 23:32 | 43.15731 | -87.43581 | 8249 ft | 241 kts | 274° |
| 2026-05-07 23:33 | 43.15797 | -87.45888 | 7870 ft | 241 kts | 274° |
| 2026-05-07 23:33 | 43.15860 | -87.48171 | 7523 ft | 241 kts | 274° |
| 2026-05-07 23:33 | 43.15922 | -87.50437 | 7155 ft | 241 kts | 274° |
| 2026-05-07 23:33 | 43.15981 | -87.52725 | 6811 ft | 240 kts | 274° |
| 2026-05-07 23:34 | 43.16039 | -87.55019 | 6441 ft | 240 kts | 274° |
| 2026-05-07 23:34 | 43.16098 | -87.57273 | 6095 ft | 240 kts | 274° |
| 2026-05-07 23:34 | 43.16160 | -87.59554 | 5751 ft | 239 kts | 274° |
| 2026-05-07 23:34 | 43.16224 | -87.61835 | 5390 ft | 239 kts | 274° |
| 2026-05-07 23:35 | 43.16290 | -87.64111 | 5029 ft | 240 kts | 274° |
| 2026-05-07 23:35 | 43.16356 | -87.66390 | 4693 ft | 239 kts | 274° |
| 2026-05-07 23:35 | 43.16422 | -87.68651 | 4345 ft | 240 kts | 273° |
| 2026-05-07 23:35 | 43.16490 | -87.70927 | 3993 ft | 241 kts | 273° |
| 2026-05-07 23:36 | 43.16562 | -87.73222 | 3639 ft | 241 kts | 274° |
| 2026-05-07 23:36 | 43.16633 | -87.75495 | 3443 ft | 235 kts | 273° |
| 2026-05-07 23:36 | 43.16591 | -87.77673 | 3434 ft | 223 kts | 256° |
| 2026-05-07 23:36 | 43.15897 | -87.79502 | 3396 ft | 215 kts | 236° |
| 2026-05-07 23:37 | 43.14993 | -87.81110 | 3127 ft | 216 kts | 234° |
| 2026-05-07 23:37 | 43.14060 | -87.82726 | 2967 ft | 212 kts | 226° |
| 2026-05-07 23:37 | 43.12910 | -87.83962 | 2756 ft | 212 kts | 215° |
| 2026-05-07 23:37 | 43.11690 | -87.85088 | 2780 ft | 209 kts | 216° |
| 2026-05-07 23:38 | 43.10515 | -87.86176 | 2797 ft | 196 kts | 216° |
| 2026-05-07 23:38 | 43.09333 | -87.86910 | 2778 ft | 184 kts | 192° |
| 2026-05-07 23:38 | 43.08055 | -87.87147 | 2781 ft | 185 kts | 189° |
| 2026-05-07 23:38 | 43.06761 | -87.87396 | 2781 ft | 189 kts | 189° |
| 2026-05-07 23:39 | 43.05515 | -87.87621 | 2712 ft | 170 kts | 189° |
| 2026-05-07 23:39 | 43.04386 | -87.87821 | 2489 ft | 151 kts | 188° |
| 2026-05-07 23:39 | 43.03389 | -87.87997 | 2257 ft | 140 kts | 187° |
| 2026-05-07 23:39 | 43.02425 | -87.88164 | 2078 ft | 141 kts | 186° |
| 2026-05-07 23:40 | 43.01449 | -87.88331 | 1879 ft | 137 kts | 186° |
| 2026-05-07 23:40 | 43.00540 | -87.88488 | 1685 ft | 129 kts | 185° |
| 2026-05-07 23:40 | 42.99645 | -87.88641 | 1512 ft | 125 kts | 185° |
| 2026-05-07 23:40 | 42.98779 | -87.88789 | 1353 ft | 125 kts | 184° |
| 2026-05-07 23:41 | 42.97923 | -87.88932 | 1189 ft | 125 kts | 183° |
| 2026-05-07 23:41 | 42.97053 | -87.89080 | 1012 ft | 124 kts | 183° |
| 2026-05-07 23:41 | 42.96188 | -87.89227 | 850 ft | 124 kts | 182° |
| 2026-05-07 23:41 | 42.95327 | -87.89376 | 691 ft | 124 kts | 182° |
| 2026-05-07 23:42 | 42.94544 | -87.89508 | 680 ft | 88 kts | 187° |
| 2026-05-07 23:42 | 42.94056 | -87.89593 | 685 ft | 57 kts | 187° |
| 2026-05-07 23:42 | 42.93701 | -87.89654 | 690 ft | 42 kts | 187° |
| 2026-05-07 23:42 | 42.93556 | -87.89719 | 693 ft | 14 kts | 235° |
| 2026-05-07 23:43 | 42.93555 | -87.89819 | 694 ft | 10 kts | 278° |
| 2026-05-07 23:43 | 42.93596 | -87.89889 | 695 ft | 10 kts | 351° |
| 2026-05-07 23:43 | 42.93679 | -87.89890 | 693 ft | 13 kts | 1° |
| 2026-05-07 23:43 | 42.93783 | -87.89889 | 691 ft | 16 kts | 360° |
| 2026-05-07 23:44 | 42.93902 | -87.89888 | 689 ft | 18 kts | 0° |
| 2026-05-07 23:44 | 42.94041 | -87.89886 | 688 ft | 20 kts | 0° |
| 2026-05-07 23:44 | 42.94191 | -87.89897 | 685 ft | 19 kts | 349° |
| 2026-05-07 23:44 | 42.94246 | -87.89911 | 685 ft | 0 kts | 349° |
| 2026-05-07 23:45 | 42.94254 | -87.89913 | 685 ft | 6 kts | 349° |
| 2026-05-07 23:45 | 42.94352 | -87.89935 | 684 ft | 20 kts | 349° |
| 2026-05-07 23:45 | 42.94463 | -87.89945 | 683 ft | 12 kts | 41° |
| 2026-05-07 23:46 | 42.94504 | -87.89803 | 682 ft | 22 kts | 71° |
| 2026-05-07 23:46 | 42.94597 | -87.89653 | 680 ft | 21 kts | 9° |
| 2026-05-07 23:46 | 42.94755 | -87.89624 | 679 ft | 23 kts | 7° |
| 2026-05-07 23:46 | 42.94919 | -87.89597 | 678 ft | 23 kts | 7° |
| 2026-05-07 23:47 | 42.95072 | -87.89570 | 678 ft | 22 kts | 8° |
| 2026-05-07 23:47 | 42.95227 | -87.89542 | 678 ft | 22 kts | 7° |
| 2026-05-07 23:47 | 42.95384 | -87.89516 | 679 ft | 23 kts | 6° |
| 2026-05-07 23:47 | 42.95539 | -87.89491 | 681 ft | 17 kts | 6° |
| 2026-05-07 23:48 | 42.95633 | -87.89541 | 682 ft | 14 kts | 335° |
| 2026-05-07 23:48 | 42.95729 | -87.89561 | 684 ft | 16 kts | 319° |
| 2026-05-07 23:48 | 42.95807 | -87.89622 | 684 ft | 8 kts | 352° |
| 2026-05-07 23:48 | 42.95820 | -87.89671 | 684 ft | 5 kts | 268° |
| 2026-05-07 23:49 | 42.95820 | -87.89677 | 684 ft | 0 kts | 269° |